Time;durP1;ratioP1;P1;durP2;ratioP2;P2;SDS_P1;SDS_P2;PMS_P1;PMS_P2;Temp;Humidity;BMP_temperature;BMP_pressure;BME280_temperature;BME280_humidity;BME280_pressure;Samples;Min_cycle;Max_cycle;Signal;HPM_P1;HPM_P2
2022/04/27 00:00:36;;;;;;;;;13.33;12.33;;;;;-147.59;100.00;57188.72;5014423;28;45474;-78
2022/04/27 00:03:03;;;;;;;;;13.33;11.33;;;;;-147.59;100.00;57188.72;5017854;28;45343;-78
2022/04/27 00:05:29;;;;;;;;;11.00;11.00;;;;;-147.59;100.00;57188.72;5017802;28;45361;-78
2022/04/27 00:07:55;;;;;;;;;15.00;12.00;;;;;-147.59;100.00;57188.72;5017289;28;46692;-78
2022/04/27 00:10:21;;;;;;;;;11.00;11.00;;;;;-147.59;100.00;57188.72;5017629;28;45407;-78
2022/04/27 00:12:47;;;;;;;;;12.33;11.33;;;;;-147.59;100.00;57188.72;5016389;28;45283;-78
2022/04/27 00:15:13;;;;;;;;;15.00;13.33;;;;;-147.59;100.00;57188.72;5017493;28;45464;-78
2022/04/27 00:17:39;;;;;;;;;15.33;14.00;;;;;-147.59;100.00;57188.72;5017229;28;45456;-78
2022/04/27 00:20:07;;;;;;;;;13.00;12.67;;;;;-147.59;100.00;57188.72;5015939;28;45412;-78
2022/04/27 00:22:32;;;;;;;;;13.67;12.00;;;;;-147.59;100.00;57188.72;5017669;28;45403;-78
2022/04/27 00:25:02;;;;;;;;;11.00;11.00;;;;;-147.59;100.00;57188.72;5017381;28;45495;-78
2022/04/27 00:27:28;;;;;;;;;13.33;12.33;;;;;-147.59;100.00;57188.72;5017179;28;46686;-78
2022/04/27 00:29:55;;;;;;;;;10.33;10.33;;;;;-147.59;100.00;57188.72;5016751;28;45522;-78
2022/04/27 00:32:20;;;;;;;;;13.67;13.00;;;;;-147.59;100.00;57188.72;5016005;28;45373;-78
2022/04/27 00:34:45;;;;;;;;;12.33;12.33;;;;;-147.59;100.00;57188.72;5017254;28;45580;-78
2022/04/27 00:37:11;;;;;;;;;13.33;12.00;;;;;-147.59;100.00;57188.72;5017165;28;45353;-77
2022/04/27 00:39:36;;;;;;;;;15.33;14.67;;;;;-147.59;100.00;57188.72;5016839;28;54509;-78
2022/04/27 00:42:14;;;;;;;;;12.33;11.00;;;;;-147.59;100.00;57188.72;5017303;28;45404;-78
2022/04/27 00:44:43;;;;;;;;;14.33;13.00;;;;;-147.59;100.00;57188.72;5016920;28;45538;-78
2022/04/27 00:47:09;;;;;;;;;12.33;12.00;;;;;-147.59;100.00;57188.72;5017293;28;46182;-78
2022/04/27 00:49:35;;;;;;;;;14.00;14.00;;;;;-147.59;100.00;57188.72;5017020;28;45458;-79
2022/04/27 00:52:00;;;;;;;;;14.00;11.00;;;;;-147.59;100.00;57188.72;5016975;28;45451;-79
2022/04/27 00:54:25;;;;;;;;;13.00;13.00;;;;;-147.59;100.00;57188.72;5017124;28;45444;-79
2022/04/27 00:56:51;;;;;;;;;11.67;11.67;;;;;-147.59;100.00;57188.72;5016803;28;46345;-79
2022/04/27 00:59:18;;;;;;;;;12.67;11.67;;;;;-147.59;100.00;57188.72;5016480;28;45426;-79
2022/04/27 01:01:43;;;;;;;;;15.00;12.33;;;;;-147.59;100.00;57188.72;5016872;28;45434;-79
2022/04/27 01:04:09;;;;;;;;;17.00;13.00;;;;;-147.59;100.00;57188.72;5016732;28;45273;-79
2022/04/27 01:06:36;;;;;;;;;13.67;13.67;;;;;-147.59;100.00;57188.72;5016901;28;45430;-79
2022/04/27 01:09:03;;;;;;;;;15.00;11.33;;;;;-147.59;100.00;57188.72;5016541;28;45241;-79
2022/04/27 01:11:29;;;;;;;;;13.00;13.00;;;;;-147.59;100.00;57188.72;5016662;28;45389;-79
2022/04/27 01:13:55;;;;;;;;;13.33;11.67;;;;;-147.59;100.00;57188.72;5015315;28;45566;-79
2022/04/27 01:16:20;;;;;;;;;12.67;11.67;;;;;-147.59;100.00;57188.72;5015167;28;48106;-79
2022/04/27 01:18:46;;;;;;;;;12.00;11.67;;;;;-147.59;100.00;57188.72;5015158;28;45523;-79
2022/04/27 01:21:12;;;;;;;;;11.33;11.00;;;;;-147.59;100.00;57188.72;5016877;28;45327;-79
2022/04/27 01:23:39;;;;;;;;;13.33;13.33;;;;;-147.59;100.00;57188.72;5016604;28;45417;-79
2022/04/27 01:26:07;;;;;;;;;13.67;12.67;;;;;-147.59;100.00;57188.72;5014799;28;46652;-79
2022/04/27 01:28:35;;;;;;;;;12.00;12.00;;;;;-147.59;100.00;57188.72;5015982;28;45582;-79
2022/04/27 01:31:07;;;;;;;;;15.67;13.67;;;;;-147.59;100.00;57188.72;5014957;28;45389;-79
2022/04/27 01:33:36;;;;;;;;;12.00;12.00;;;;;-147.59;100.00;57188.72;5016415;28;45399;-79
2022/04/27 01:36:06;;;;;;;;;13.67;12.00;;;;;-147.59;100.00;57188.72;5016034;28;45565;-79
2022/04/27 01:38:40;;;;;;;;;11.00;9.33;;;;;-147.59;100.00;57188.72;5016399;28;45441;-79
2022/04/27 01:41:06;;;;;;;;;11.67;11.67;;;;;-147.59;100.00;57188.72;5015823;28;45467;-78
2022/04/27 01:43:33;;;;;;;;;14.67;14.33;;;;;-147.59;100.00;57188.72;5016227;28;45363;-79
2022/04/27 01:45:59;;;;;;;;;14.67;12.33;;;;;-147.59;100.00;57188.72;5014486;28;47212;-78
2022/04/27 01:48:26;;;;;;;;;14.67;11.67;;;;;-147.59;100.00;57188.72;5016068;28;45439;-79
2022/04/27 01:50:51;;;;;;;;;13.33;13.00;;;;;-147.59;100.00;57188.72;5014662;28;45443;-79
2022/04/27 01:56:01;;;;;;;;;12.33;12.33;;;;;-147.59;100.00;57188.72;5015353;28;45467;-79
2022/04/27 01:58:27;;;;;;;;;16.00;13.00;;;;;-147.59;100.00;57188.72;5016060;28;45499;-79
2022/04/27 02:00:52;;;;;;;;;19.00;15.33;;;;;-147.59;100.00;57188.72;5014631;28;45431;-79
2022/04/27 02:03:18;;;;;;;;;20.00;15.33;;;;;-147.59;100.00;57188.72;5016003;28;45404;-79
2022/04/27 02:05:45;;;;;;;;;15.00;14.00;;;;;-147.59;100.00;57188.72;5014682;28;48131;-79
2022/04/27 02:08:11;;;;;;;;;14.33;13.33;;;;;-147.59;100.00;57188.72;5015651;28;45379;-79
2022/04/27 02:10:37;;;;;;;;;14.67;13.33;;;;;-147.59;100.00;57188.72;5015610;28;45370;-79
2022/04/27 02:13:07;;;;;;;;;14.33;14.33;;;;;-147.59;100.00;57188.72;5015661;28;45436;-78
2022/04/27 02:15:33;;;;;;;;;13.67;13.67;;;;;-147.59;100.00;57188.72;5014215;28;48227;-78
2022/04/27 02:17:59;;;;;;;;;12.33;12.33;;;;;-147.59;100.00;57188.72;5014196;28;45774;-78
2022/04/27 02:20:24;;;;;;;;;18.33;14.00;;;;;-147.59;100.00;57188.72;5015625;28;45297;-79
2022/04/27 02:22:51;;;;;;;;;11.67;11.67;;;;;-147.59;100.00;57188.72;5015708;28;45437;-78
2022/04/27 02:25:17;;;;;;;;;17.00;14.00;;;;;-147.59;100.00;57188.72;5013982;28;45720;-79
2022/04/27 02:27:43;;;;;;;;;17.33;14.33;;;;;-147.59;100.00;57188.72;5015133;28;45454;-78
2022/04/27 02:30:10;;;;;;;;;14.00;14.00;;;;;-147.59;100.00;57188.72;5014284;28;45352;-78
2022/04/27 02:32:35;;;;;;;;;11.00;10.00;;;;;-147.59;100.00;57188.72;5015649;28;45383;-78
2022/04/27 02:35:01;;;;;;;;;14.67;14.67;;;;;-147.59;100.00;57188.72;5013961;28;47308;-79
2022/04/27 02:37:26;;;;;;;;;13.00;12.00;;;;;-147.59;100.00;57188.72;5014195;28;45442;-79
2022/04/27 02:39:52;;;;;;;;;16.67;15.00;;;;;-147.59;100.00;57188.72;5015499;28;45485;-78
2022/04/27 02:42:17;;;;;;;;;21.00;16.33;;;;;-147.59;100.00;57188.72;5015533;28;45513;-78
2022/04/27 02:44:44;;;;;;;;;18.67;17.00;;;;;-147.59;100.00;57188.72;5013906;28;46961;-79
2022/04/27 02:47:09;;;;;;;;;16.67;15.00;;;;;-147.59;100.00;57188.72;5015322;28;45328;-79
2022/04/27 02:52:18;;;;;;;;;15.33;14.33;;;;;-147.59;100.00;57188.72;5015222;28;45424;-78
2022/04/27 02:54:44;;;;;;;;;19.67;17.00;;;;;-147.59;100.00;57188.72;5014965;28;45410;-78
2022/04/27 02:57:09;;;;;;;;;20.33;18.00;;;;;-147.59;100.00;57188.72;5014911;28;45320;-78
2022/04/27 02:59:34;;;;;;;;;17.67;17.00;;;;;-147.59;100.00;57188.72;5015283;28;45374;-78
2022/04/27 03:02:00;;;;;;;;;19.00;17.33;;;;;-147.59;100.00;57188.72;5015226;28;45549;-79
2022/04/27 03:04:26;;;;;;;;;20.67;17.67;;;;;-147.59;100.00;57188.72;5014994;28;45347;-78
2022/04/27 03:06:51;;;;;;;;;20.67;19.00;;;;;-147.59;100.00;57188.72;5013449;28;45457;-78
2022/04/27 03:09:16;;;;;;;;;19.33;16.67;;;;;-147.59;100.00;57188.72;5013343;28;45446;-78
2022/04/27 03:11:42;;;;;;;;;17.67;17.33;;;;;-147.59;100.00;57188.72;5015093;28;45666;-78
2022/04/27 03:14:07;;;;;;;;;16.00;16.00;;;;;-147.59;100.00;57188.72;5014539;28;45374;-79
2022/04/27 03:16:32;;;;;;;;;18.67;16.67;;;;;-147.59;100.00;57188.72;5014919;28;45370;-79
2022/04/27 03:18:58;;;;;;;;;18.00;17.67;;;;;-147.59;100.00;57188.72;5013741;28;45385;-79
2022/04/27 03:21:23;;;;;;;;;15.00;15.00;;;;;-147.59;100.00;57188.72;5015021;28;45441;-79
2022/04/27 03:23:49;;;;;;;;;21.67;19.33;;;;;-147.59;100.00;57188.72;5014523;28;46108;-79
2022/04/27 03:26:14;;;;;;;;;21.00;16.00;;;;;-147.59;100.00;57188.72;5014596;28;45434;-79
2022/04/27 03:28:39;;;;;;;;;19.00;16.67;;;;;-147.59;100.00;57188.72;5013049;28;45358;-78
2022/04/27 03:31:05;;;;;;;;;20.67;19.33;;;;;-147.59;100.00;57188.72;5014755;28;45570;-78
2022/04/27 03:33:30;;;;;;;;;22.33;20.00;;;;;-147.59;100.00;57188.72;5014779;28;45554;-79
2022/04/27 03:35:55;;;;;;;;;17.00;16.00;;;;;-147.59;100.00;57188.72;5015870;28;45435;-79
2022/04/27 03:38:21;;;;;;;;;15.33;15.33;;;;;-147.59;100.00;57188.72;5017786;28;45435;-78
2022/04/27 03:40:47;;;;;;;;;20.33;18.33;;;;;-147.59;100.00;57188.72;5016958;28;45519;-78
2022/04/27 03:43:13;;;;;;;;;23.67;20.33;;;;;-147.59;100.00;57188.72;5016496;28;46112;-78
2022/04/27 03:45:38;;;;;;;;;19.67;19.33;;;;;-147.59;100.00;57188.72;5018179;28;45326;-78
2022/04/27 03:48:04;;;;;;;;;21.67;20.33;;;;;-147.59;100.00;57188.72;5018096;28;45431;-79
2022/04/27 03:50:30;;;;;;;;;24.00;21.33;;;;;-147.59;100.00;57188.72;5018327;28;45292;-78
2022/04/27 03:52:55;;;;;;;;;21.00;19.00;;;;;-147.59;100.00;57188.72;5016110;28;48213;-78
2022/04/27 03:55:21;;;;;;;;;24.00;20.67;;;;;-147.59;100.00;57188.72;5017810;28;45432;-78
2022/04/27 03:57:46;;;;;;;;;21.67;20.00;;;;;-147.59;100.00;57188.72;5016687;28;45343;-79
2022/04/27 04:00:12;;;;;;;;;18.33;16.67;;;;;-147.59;100.00;57188.72;5017638;28;45421;-78
2022/04/27 04:02:37;;;;;;;;;24.67;21.33;;;;;-147.59;100.00;57188.72;5017790;28;46328;-78
2022/04/27 04:05:07;;;;;;;;;18.33;18.33;;;;;-147.59;100.00;57188.72;5017724;28;45233;-78
2022/04/27 04:07:33;;;;;;;;;24.00;20.33;;;;;-147.59;100.00;57188.72;5017534;28;46128;-79
2022/04/27 04:09:59;;;;;;;;;20.00;15.33;;;;;-147.59;100.00;57188.72;5017532;28;45469;-79
2022/04/27 04:12:24;;;;;;;;;20.67;20.33;;;;;-147.59;100.00;57188.72;5016289;28;47034;-78
2022/04/27 04:14:50;;;;;;;;;22.33;19.33;;;;;-147.59;100.00;57188.72;5017355;28;45594;-78
2022/04/27 04:17:16;;;;;;;;;23.33;19.67;;;;;-147.59;100.00;57188.72;5017410;28;45423;-78
2022/04/27 04:19:42;;;;;;;;;20.33;20.33;;;;;-147.59;100.00;57188.72;5017454;28;45384;-77
2022/04/27 04:22:08;;;;;;;;;26.00;21.67;;;;;-147.59;100.00;57188.72;5016934;28;45390;-78
2022/04/27 04:24:34;;;;;;;;;24.00;20.00;;;;;-147.59;100.00;57188.72;5017365;28;45301;-79
2022/04/27 04:29:42;;;;;;;;;22.00;20.67;;;;;-147.59;100.00;57188.72;4996733;28;45477;-79
2022/04/27 04:32:08;;;;;;;;;24.33;24.33;;;;;-147.59;100.00;57188.72;4995934;28;45998;-79
2022/04/27 04:34:33;;;;;;;;;26.00;24.00;;;;;-147.59;100.00;57188.72;4996735;28;45451;-79
2022/04/27 04:36:58;;;;;;;;;27.67;25.00;;;;;-147.59;100.00;57188.72;4996453;28;45410;-79
2022/04/27 04:39:24;;;;;;;;;23.33;21.67;;;;;-147.59;100.00;57188.72;4979096;28;45547;-79
2022/04/27 04:41:49;;;;;;;;;22.33;21.67;;;;;-147.59;100.00;57188.72;4979205;28;48043;-79
2022/04/27 04:44:14;;;;;;;;;22.67;17.33;;;;;-147.59;100.00;57188.72;4978741;28;45465;-78
2022/04/27 04:46:40;;;;;;;;;21.00;21.00;;;;;-147.59;100.00;57188.72;4996573;28;45565;-78
2022/04/27 04:49:06;;;;;;;;;19.33;15.33;;;;;-147.59;100.00;57188.72;4996311;28;45543;-81
2022/04/27 04:51:33;;;;;;;;;23.33;20.33;;;;;-147.59;100.00;57188.72;4978855;28;47393;-82
2022/04/27 04:53:58;;;;;;;;;22.00;22.00;;;;;-147.59;100.00;57188.72;4979357;28;46252;-81
2022/04/27 04:56:24;;;;;;;;;30.33;25.67;;;;;-147.59;100.00;57188.72;4979023;28;45287;-82
2022/04/27 04:58:49;;;;;;;;;24.67;22.67;;;;;-147.59;100.00;57188.72;4997069;28;45357;-81
2022/04/27 05:01:14;;;;;;;;;23.67;20.67;;;;;-147.59;100.00;57188.72;4978966;28;46959;-82
2022/04/27 05:03:40;;;;;;;;;31.33;27.67;;;;;-147.59;100.00;57188.72;4994926;28;45380;-83
2022/04/27 05:06:06;;;;;;;;;27.67;23.33;;;;;-147.59;100.00;57188.72;4994589;28;45454;-81
2022/04/27 05:08:31;;;;;;;;;21.67;21.00;;;;;-147.59;100.00;57188.72;4994361;28;45410;-84
2022/04/27 05:10:57;;;;;;;;;27.00;23.33;;;;;-147.59;100.00;57188.72;4996152;28;46202;-83
2022/04/27 05:13:22;;;;;;;;;27.33;25.33;;;;;-147.59;100.00;57188.72;4978641;28;45929;-83
2022/04/27 05:15:48;;;;;;;;;28.00;26.33;;;;;-147.59;100.00;57188.72;4978686;28;45274;-82
2022/04/27 05:18:14;;;;;;;;;23.00;22.00;;;;;-147.59;100.00;57188.72;4978249;28;45425;-83
2022/04/27 05:20:39;;;;;;;;;23.33;22.33;;;;;-147.59;100.00;57188.72;4996090;28;46086;-81
2022/04/27 05:23:06;;;;;;;;;27.33;24.33;;;;;-147.59;100.00;57188.72;4978834;28;45664;-83
2022/04/27 05:25:33;;;;;;;;;23.67;23.33;;;;;-147.59;100.00;57188.72;4998617;28;45394;-81
2022/04/27 05:27:58;;;;;;;;;30.00;26.67;;;;;-147.59;100.00;57188.72;5007090;28;45392;-82
2022/04/27 05:33:08;;;;;;;;;32.67;26.00;;;;;-147.59;100.00;57188.72;5028990;28;45442;-82
2022/04/27 05:35:41;;;;;;;;;31.67;28.00;;;;;-147.59;100.00;57188.72;5022541;28;45422;-81
2022/04/27 05:38:08;;;;;;;;;29.33;23.33;;;;;-147.59;100.00;57188.72;5014755;28;45502;-82
2022/04/27 05:40:34;;;;;;;;;30.00;24.67;;;;;-147.59;100.00;57188.72;5016491;28;45714;-82
2022/04/27 05:43:00;;;;;;;;;28.67;25.33;;;;;-147.59;100.00;57188.72;5015317;28;45433;-79
2022/04/27 05:45:26;;;;;;;;;27.67;24.00;;;;;-147.59;100.00;57188.72;5016161;28;45304;-83
2022/04/27 05:47:51;;;;;;;;;26.00;22.00;;;;;-147.59;100.00;57188.72;5016060;28;45385;-79
2022/04/27 05:50:17;;;;;;;;;23.00;22.67;;;;;-147.59;100.00;57188.72;5015746;28;51185;-85
2022/04/27 05:53:43;;;;;;;;;24.00;21.33;;;;;25.25;23.60;101719.75;5104741;27;45406;-81
2022/04/27 05:56:09;;;;;;;;;27.00;26.33;;;;;25.39;23.71;101703.13;5071793;27;45418;-81
2022/04/27 05:58:34;;;;;;;;;31.67;24.33;;;;;25.76;23.77;101740.09;5072139;27;45413;-80
2022/04/27 06:00:59;;;;;;;;;30.67;29.00;;;;;25.87;23.31;101744.34;5071935;27;45573;-80
2022/04/27 06:03:25;;;;;;;;;32.00;28.33;;;;;25.76;23.20;101734.66;5071221;27;46478;-80
2022/04/27 06:05:50;;;;;;;;;24.67;24.00;;;;;25.80;22.96;101738.19;5072109;27;45468;-80
2022/04/27 06:08:16;;;;;;;;;31.00;27.67;;;;;25.60;23.14;101736.94;5071783;27;46010;-80
2022/04/27 06:10:41;;;;;;;;;29.67;25.67;;;;;25.52;23.11;101728.13;5070146;28;45462;-80
2022/04/27 06:13:06;;;;;;;;;31.00;28.67;;;;;25.58;23.64;101755.09;5071332;27;46242;-79
2022/04/27 06:15:32;;;;;;;;;29.00;27.00;;;;;25.50;23.07;101749.91;5071194;27;52219;-80
2022/04/27 06:17:57;;;;;;;;;36.67;28.67;;;;;25.62;23.31;101759.53;5071653;27;45357;-80
2022/04/27 06:20:23;;;;;;;;;29.67;27.00;;;;;25.71;23.50;101754.75;5071472;27;45549;-80
2022/04/27 06:22:48;;;;;;;;;36.33;31.33;;;;;25.90;23.34;101756.00;5071231;27;45404;-80
2022/04/27 06:25:13;;;;;;;;;28.00;25.33;;;;;26.08;22.97;101751.91;5071652;27;45366;-79
2022/04/27 06:27:39;;;;;;;;;31.67;26.67;;;;;26.11;22.78;101762.69;5070245;28;45292;-80
2022/04/27 06:30:05;;;;;;;;;26.00;25.00;;;;;26.17;23.01;101750.72;5072380;27;45378;-79
2022/04/27 06:32:34;;;;;;;;;32.00;27.00;;;;;26.40;22.95;101768.16;5069667;28;47004;-80
2022/04/27 06:35:00;;;;;;;;;37.67;34.00;;;;;26.34;22.58;101763.81;5071294;28;45494;-79
2022/04/27 06:37:26;;;;;;;;;33.33;30.33;;;;;26.35;22.88;101771.03;5071480;28;45377;-79
2022/04/27 06:39:51;;;;;;;;;25.33;23.00;;;;;26.53;22.64;101775.88;5071742;28;45463;-79
2022/04/27 06:42:20;;;;;;;;;31.33;28.00;;;;;26.53;22.94;101767.72;5071188;27;46009;-80
2022/04/27 06:44:46;;;;;;;;;34.33;29.67;;;;;26.60;22.56;101771.16;5071421;27;45216;-79
2022/04/27 06:47:12;;;;;;;;;30.67;29.33;;;;;26.67;22.47;101780.91;5070960;28;45423;-79
2022/04/27 06:49:38;;;;;;;;;31.33;27.67;;;;;26.74;22.34;101780.75;5071172;28;45528;-79
2022/04/27 06:52:04;;;;;;;;;36.67;30.33;;;;;26.58;22.88;101781.22;5077223;27;45598;-79
2022/04/27 06:54:29;;;;;;;;;25.33;25.00;;;;;26.59;22.73;101769.34;5070741;27;45625;-79
2022/04/27 06:56:54;;;;;;;;;32.67;27.67;;;;;26.44;22.27;101762.59;5071185;28;45493;-80
2022/04/27 06:59:20;;;;;;;;;30.00;27.33;;;;;26.38;22.84;101765.50;5069684;27;45610;-79
2022/04/27 07:01:45;;;;;;;;;35.33;31.00;;;;;26.62;22.49;101791.03;5070692;28;45417;-80
2022/04/27 07:04:11;;;;;;;;;40.67;31.67;;;;;26.53;22.81;101785.91;5064039;28;45446;-80
2022/04/27 07:06:37;;;;;;;;;28.00;24.00;;;;;26.57;23.16;101790.31;5077973;27;45385;-80
2022/04/27 07:09:04;;;;;;;;;29.67;29.00;;;;;26.89;22.36;101810.16;5084658;27;45593;-81
2022/04/27 07:11:30;;;;;;;;;33.33;28.67;;;;;26.87;22.45;101779.38;5068120;27;45516;-81
2022/04/27 07:13:55;;;;;;;;;29.33;28.00;;;;;27.10;22.25;101807.69;5072707;28;45279;-81
2022/04/27 07:16:21;;;;;;;;;32.00;29.33;;;;;27.17;22.56;101792.91;5073271;28;45515;-82
2022/04/27 07:18:46;;;;;;;;;33.67;28.00;;;;;27.33;22.29;101821.41;5074364;27;45368;-81
2022/04/27 07:21:12;;;;;;;;;33.67;31.67;;;;;27.23;22.45;101798.16;5071107;28;45451;-81
2022/04/27 07:23:38;;;;;;;;;28.67;27.00;;;;;27.41;22.44;101818.44;5073026;28;45443;-81
2022/04/27 07:26:06;;;;;;;;;36.00;24.33;;;;;27.29;22.34;101795.22;5074306;27;45362;-80
2022/04/27 07:28:31;;;;;;;;;31.67;30.33;;;;;27.33;22.00;101817.81;5073381;27;45347;-81
2022/04/27 07:30:57;;;;;;;;;31.00;26.67;;;;;27.44;22.94;101814.72;5067632;27;46370;-80
2022/04/27 07:33:24;;;;;;;;;35.00;32.00;;;;;27.50;22.40;101823.59;5074997;28;45460;-81
2022/04/27 07:35:49;;;;;;;;;35.00;32.00;;;;;27.44;22.21;101814.72;5074909;27;45392;-81
2022/04/27 07:38:14;;;;;;;;;31.00;30.00;;;;;27.51;22.13;101805.38;5074338;28;45261;-81
2022/04/27 07:40:41;;;;;;;;;32.33;29.67;;;;;27.50;22.28;101818.13;5074754;28;45487;-81
2022/04/27 07:43:06;;;;;;;;;35.00;28.33;;;;;27.45;22.01;101814.66;5072333;28;45439;-82
2022/04/27 07:45:31;;;;;;;;;31.67;30.00;;;;;27.67;22.25;101814.81;5072648;27;45494;-80
2022/04/27 07:47:57;;;;;;;;;33.33;31.67;;;;;27.62;22.25;101818.66;5074259;28;45339;-81
2022/04/27 07:50:22;;;;;;;;;30.33;29.00;;;;;27.60;22.29;101818.69;5074667;27;46622;-82
2022/04/27 07:52:47;;;;;;;;;35.00;33.33;;;;;27.68;22.09;101821.16;5071270;28;45547;-80
2022/04/27 07:55:13;;;;;;;;;31.67;29.67;;;;;27.79;21.95;101818.94;5071704;28;45873;-81
2022/04/27 07:57:38;;;;;;;;;32.33;30.33;;;;;27.86;22.04;101835.94;5066924;28;45791;-81
2022/04/27 08:00:09;;;;;;;;;40.00;35.67;;;;;27.75;21.88;101830.91;5070794;27;45461;-81
2022/04/27 08:02:36;;;;;;;;;33.67;26.00;;;;;27.81;22.32;101838.84;5070570;28;45353;-82
2022/04/27 08:05:02;;;;;;;;;36.33;33.67;;;;;27.83;22.20;101820.63;5069279;27;45550;-80
2022/04/27 08:07:37;;;;;;;;;38.33;33.00;;;;;28.17;22.09;101830.31;5070540;27;46460;-81
2022/04/27 08:10:18;;;;;;;;;36.33;31.00;;;;;28.32;22.01;101834.25;5061372;28;46406;-81
2022/04/27 08:12:49;;;;;;;;;35.00;31.33;;;;;28.20;21.94;101826.56;5071983;28;45504;-82
2022/04/27 08:15:16;;;;;;;;;38.00;33.33;;;;;28.30;21.98;101838.00;5062817;28;45643;-81
2022/04/27 08:17:51;;;;;;;;;37.00;29.67;;;;;28.45;21.94;101842.84;5073021;27;45467;-81
2022/04/27 08:23:02;;;;;;;;;36.00;30.00;;;;;28.53;21.87;101823.47;5072309;28;45560;-80
2022/04/27 08:25:27;;;;;;;;;33.00;30.33;;;;;28.59;21.83;101823.22;5073091;28;49269;-81
2022/04/27 08:27:53;;;;;;;;;29.67;28.67;;;;;28.82;21.81;101826.88;5072145;27;45345;-80
2022/04/27 08:30:18;;;;;;;;;36.67;33.33;;;;;28.87;21.57;101827.59;5072113;27;47042;-81
2022/04/27 08:32:43;;;;;;;;;35.33;29.00;;;;;29.00;21.71;101836.16;5074961;27;45409;-80
2022/04/27 08:35:09;;;;;;;;;36.67;32.00;;;;;28.89;21.67;101829.31;5065951;27;45514;-80
2022/04/27 08:37:34;;;;;;;;;48.00;35.00;;;;;28.89;21.63;101833.91;5074773;27;45606;-81
2022/04/27 08:40:01;;;;;;;;;32.67;30.67;;;;;28.97;21.89;101841.75;5069716;28;47928;-80
2022/04/27 08:42:26;;;;;;;;;44.67;35.67;;;;;28.94;21.79;101830.97;5068736;27;45596;-81
2022/04/27 08:44:52;;;;;;;;;32.67;31.67;;;;;28.97;21.82;101839.03;5067153;27;45246;-81
2022/04/27 08:47:18;;;;;;;;;38.67;35.00;;;;;29.00;21.85;101830.69;5067638;28;45674;-80
2022/04/27 08:49:43;;;;;;;;;29.67;28.00;;;;;28.92;22.04;101836.50;5070163;28;46456;-81
2022/04/27 08:52:12;;;;;;;;;37.00;33.33;;;;;29.24;21.60;101843.38;5073342;27;45767;-81
2022/04/27 08:54:38;;;;;;;;;40.33;32.67;;;;;29.26;21.65;101821.44;5073400;27;45423;-81
2022/04/27 08:57:04;;;;;;;;;39.33;32.67;;;;;29.39;21.56;101830.00;5071906;27;45611;-81
2022/04/27 08:59:30;;;;;;;;;35.33;31.67;;;;;29.54;21.69;101829.34;5071368;28;47217;-80
2022/04/27 09:01:55;;;;;;;;;39.00;32.67;;;;;29.66;21.56;101824.28;5069404;27;45421;-81
2022/04/27 09:04:20;;;;;;;;;34.00;30.33;;;;;29.78;21.86;101835.56;5073583;28;45428;-81
2022/04/27 09:06:47;;;;;;;;;34.00;27.00;;;;;29.82;21.81;101810.78;5070170;28;45504;-81
2022/04/27 09:09:33;;;;;;;;;32.67;31.00;;;;;30.05;21.27;101828.94;5070140;28;46370;-81
2022/04/27 09:11:58;;;;;;;;;31.33;30.67;;;;;30.04;21.33;101830.81;5068925;28;46624;-81
2022/04/27 09:14:36;;;;;;;;;38.67;34.00;;;;;30.16;21.69;101823.88;5065140;27;45410;-82
2022/04/27 09:22:43;;;;;;;;;37.00;32.00;;;;;30.12;21.55;101833.16;5061720;28;45433;-82
2022/04/27 09:25:09;;;;;;;;;31.00;31.00;;;;;30.03;21.32;101825.41;5060806;28;45482;-82
2022/04/27 09:27:34;;;;;;;;;37.00;32.00;;;;;30.22;21.40;101828.16;5057036;28;45465;-80
2022/04/27 09:30:02;;;;;;;;;38.67;29.67;;;;;30.25;21.34;101822.53;5064176;27;45471;-81
2022/04/27 09:32:29;;;;;;;;;38.67;33.67;;;;;30.33;21.81;101830.41;5061213;27;45678;-81
2022/04/27 09:34:55;;;;;;;;;31.67;28.33;;;;;30.46;21.22;101828.88;5062420;28;45449;-80
2022/04/27 09:37:24;;;;;;;;;29.67;27.00;;;;;30.67;21.40;101828.81;5062391;28;45733;-81
2022/04/27 09:39:59;;;;;;;;;35.00;31.33;;;;;30.72;21.30;101830.34;5060580;27;45916;-81
2022/04/27 09:42:33;;;;;;;;;33.33;30.00;;;;;30.68;21.22;101820.50;5056269;27;45929;-82
2022/04/27 09:45:25;;;;;;;;;38.33;32.00;;;;;31.02;20.87;101837.16;5053355;28;45421;-82
2022/04/27 09:48:00;;;;;;;;;35.33;32.00;;;;;31.02;20.41;101834.44;5045327;28;46033;-82
2022/04/27 09:50:26;;;;;;;;;40.33;34.00;;;;;30.87;20.62;101830.56;5054811;28;45947;-81
2022/04/27 09:52:52;;;;;;;;;37.33;33.67;;;;;30.69;21.16;101822.31;5056243;28;45567;-80
2022/04/27 09:55:19;;;;;;;;;37.67;33.67;;;;;30.94;20.95;101826.53;5059534;27;45535;-80
2022/04/27 09:57:49;;;;;;;;;29.00;28.67;;;;;30.84;20.98;101814.28;5060701;28;45389;-80
2022/04/27 10:00:15;;;;;;;;;32.33;29.33;;;;;31.08;20.77;101814.91;5052913;27;46183;-77
2022/04/27 10:02:43;;;;;;;;;32.00;29.67;;;;;31.31;20.85;101832.94;5056087;28;45538;-78
2022/04/27 10:05:08;;;;;;;;;38.33;30.67;;;;;31.33;20.42;101806.31;5056647;27;45761;-80
2022/04/27 10:07:35;;;;;;;;;34.33;29.33;;;;;31.59;20.50;101815.97;5059933;27;45521;-80
2022/04/27 10:10:03;;;;;;;;;30.33;30.33;;;;;31.50;20.77;101802.69;5059371;28;46296;-80
2022/04/27 10:12:34;;;;;;;;;30.00;30.00;;;;;31.62;20.61;101829.50;5058947;28;45473;-80
2022/04/27 10:14:59;;;;;;;;;24.67;22.00;;;;;31.71;20.09;101805.31;5062598;27;45478;-79
2022/04/27 10:17:26;;;;;;;;;31.00;30.33;;;;;31.68;20.19;101800.88;5058944;28;45413;-81
2022/04/27 10:19:52;;;;;;;;;31.33;28.00;;;;;31.72;20.07;101810.72;5055939;28;45549;-80
2022/04/27 10:22:32;;;;;;;;;31.00;28.33;;;;;31.64;20.36;101783.72;5056390;28;48219;-81
2022/04/27 10:25:05;;;;;;;;;28.67;28.67;;;;;31.87;19.95;101799.88;5054739;28;45552;-81
2022/04/27 10:27:33;;;;;;;;;22.67;19.67;;;;;31.52;20.29;101810.84;5056182;28;45564;-80
2022/04/27 10:29:58;;;;;;;;;32.33;31.00;;;;;31.64;20.27;101805.66;5055992;28;45437;-80
2022/04/27 10:32:51;;;;;;;;;32.33;30.33;;;;;31.70;20.40;101798.03;5058873;27;45481;-80
2022/04/27 10:35:19;;;;;;;;;27.00;25.00;;;;;31.90;20.50;101806.09;5057015;28;45501;-81
2022/04/27 10:37:59;;;;;;;;;26.00;25.00;;;;;31.76;20.36;101789.50;5050133;28;45484;-77
2022/04/27 10:40:34;;;;;;;;;26.33;24.00;;;;;32.04;19.62;101794.34;5063927;28;46410;-82
2022/04/27 10:43:06;;;;;;;;;28.67;27.00;;;;;32.07;19.53;101794.19;5051203;28;45972;-81
2022/04/27 10:45:32;;;;;;;;;28.00;27.33;;;;;32.21;19.49;101789.78;5059840;28;45957;-79
2022/04/27 10:47:57;;;;;;;;;30.00;27.00;;;;;32.33;19.42;101778.13;5061797;28;45469;-79
2022/04/27 10:50:30;;;;;;;;;23.67;21.00;;;;;32.36;19.83;101780.69;5069067;27;45591;-81
2022/04/27 10:52:57;;;;;;;;;27.67;26.67;;;;;32.37;19.31;101776.97;5065083;27;45462;-81
2022/04/27 10:55:35;;;;;;;;;22.67;21.00;;;;;32.44;19.08;101774.78;5063727;28;45430;-78
2022/04/27 10:58:13;;;;;;;;;21.67;21.67;;;;;32.39;19.64;101747.59;5069566;27;45470;-84
2022/04/27 11:00:57;;;;;;;;;20.67;20.67;;;;;32.59;19.20;101778.50;5060158;28;46161;-79
2022/04/27 11:03:24;;;;;;;;;27.67;25.33;;;;;32.61;19.05;101760.06;5064128;27;45662;-81
2022/04/27 11:05:50;;;;;;;;;24.33;23.33;;;;;32.55;18.62;101746.69;5069930;27;45545;-81
2022/04/27 11:08:56;;;;;;;;;24.33;20.00;;;;;32.83;18.79;101766.09;5065778;27;45487;-81
2022/04/27 11:11:26;;;;;;;;;23.00;21.33;;;;;32.97;18.80;101765.28;4983266;28;45625;-82
2022/04/27 11:13:59;;;;;;;;;25.00;23.00;;;;;32.83;18.61;101755.09;4980126;28;45631;-81
2022/04/27 11:16:24;;;;;;;;;20.67;18.00;;;;;32.91;19.05;101759.25;4983420;28;45563;-81
2022/04/27 11:19:08;;;;;;;;;20.00;18.33;;;;;32.83;19.04;101735.88;4979119;28;45546;-80
2022/04/27 11:21:33;;;;;;;;;18.33;17.67;;;;;33.12;18.85;101752.47;4981853;28;45612;-81